sensor_id;sensor_type;location;lat;lon;timestamp;P1;durP1;ratioP1;P2;durP2;ratioP2
9418;SDS011;4748;50.802;7.132;2022-12-26T00:00:36;0.67;;;0.67;;
9418;SDS011;4748;50.802;7.132;2022-12-26T00:03:02;0.40;;;0.30;;
9418;SDS011;4748;50.802;7.132;2022-12-26T00:05:27;1.17;;;0.20;;
9418;SDS011;4748;50.802;7.132;2022-12-26T00:07:52;0.63;;;0.30;;
9418;SDS011;4748;50.802;7.132;2022-12-26T00:10:18;0.10;;;0.10;;
9418;SDS011;4748;50.802;7.132;2022-12-26T00:12:43;1.17;;;0.80;;
9418;SDS011;4748;50.802;7.132;2022-12-26T00:15:08;0.67;;;0.30;;
9418;SDS011;4748;50.802;7.132;2022-12-26T00:17:34;0.83;;;0.30;;
9418;SDS011;4748;50.802;7.132;2022-12-26T00:19:59;0.20;;;0.20;;
9418;SDS011;4748;50.802;7.132;2022-12-26T00:22:25;0.30;;;0.30;;
9418;SDS011;4748;50.802;7.132;2022-12-26T00:24:50;1.23;;;0.40;;
9418;SDS011;4748;50.802;7.132;2022-12-26T00:27:15;0.60;;;0.57;;
9418;SDS011;4748;50.802;7.132;2022-12-26T00:29:41;0.27;;;0.27;;
9418;SDS011;4748;50.802;7.132;2022-12-26T00:32:06;0.30;;;0.30;;
9418;SDS011;4748;50.802;7.132;2022-12-26T00:34:31;3.97;;;0.20;;
9418;SDS011;4748;50.802;7.132;2022-12-26T00:36:57;0.30;;;0.30;;
9418;SDS011;4748;50.802;7.132;2022-12-26T00:39:22;0.63;;;0.63;;
9418;SDS011;4748;50.802;7.132;2022-12-26T00:41:47;0.40;;;0.40;;
9418;SDS011;4748;50.802;7.132;2022-12-26T00:44:13;0.13;;;0.13;;
9418;SDS011;4748;50.802;7.132;2022-12-26T00:46:38;1.70;;;0.30;;
9418;SDS011;4748;50.802;7.132;2022-12-26T00:49:03;0.27;;;0.27;;
9418;SDS011;4748;50.802;7.132;2022-12-26T00:51:29;1.80;;;0.27;;
9418;SDS011;4748;50.802;7.132;2022-12-26T00:53:54;0.30;;;0.30;;
9418;SDS011;4748;50.802;7.132;2022-12-26T00:56:19;1.60;;;0.40;;
9418;SDS011;4748;50.802;7.132;2022-12-26T00:58:45;2.37;;;0.40;;
9418;SDS011;4748;50.802;7.132;2022-12-26T01:01:15;0.43;;;0.40;;
9418;SDS011;4748;50.802;7.132;2022-12-26T01:03:43;0.67;;;0.67;;
9418;SDS011;4748;50.802;7.132;2022-12-26T01:06:09;0.50;;;0.50;;
9418;SDS011;4748;50.802;7.132;2022-12-26T01:08:34;0.60;;;0.60;;
9418;SDS011;4748;50.802;7.132;2022-12-26T01:11:04;0.60;;;0.60;;
9418;SDS011;4748;50.802;7.132;2022-12-26T01:13:30;3.47;;;0.53;;
9418;SDS011;4748;50.802;7.132;2022-12-26T01:15:56;0.63;;;0.43;;
9418;SDS011;4748;50.802;7.132;2022-12-26T01:18:22;0.70;;;0.60;;
9418;SDS011;4748;50.802;7.132;2022-12-26T01:20:48;0.77;;;0.40;;
9418;SDS011;4748;50.802;7.132;2022-12-26T01:23:13;0.77;;;0.60;;
9418;SDS011;4748;50.802;7.132;2022-12-26T01:25:40;2.93;;;0.30;;
9418;SDS011;4748;50.802;7.132;2022-12-26T01:28:05;0.60;;;0.60;;
9418;SDS011;4748;50.802;7.132;2022-12-26T01:30:30;0.30;;;0.30;;
9418;SDS011;4748;50.802;7.132;2022-12-26T01:32:56;0.40;;;0.40;;
9418;SDS011;4748;50.802;7.132;2022-12-26T01:35:21;0.40;;;0.20;;
9418;SDS011;4748;50.802;7.132;2022-12-26T01:37:47;4.73;;;0.50;;
9418;SDS011;4748;50.802;7.132;2022-12-26T01:40:12;0.93;;;0.50;;
9418;SDS011;4748;50.802;7.132;2022-12-26T01:42:38;0.30;;;0.30;;
9418;SDS011;4748;50.802;7.132;2022-12-26T01:45:27;2.87;;;0.60;;
9418;SDS011;4748;50.802;7.132;2022-12-26T01:48:00;0.73;;;0.50;;
9418;SDS011;4748;50.802;7.132;2022-12-26T01:50:42;0.40;;;0.40;;
9418;SDS011;4748;50.802;7.132;2022-12-26T01:53:15;0.80;;;0.60;;
9418;SDS011;4748;50.802;7.132;2022-12-26T01:55:46;1.10;;;0.40;;
9418;SDS011;4748;50.802;7.132;2022-12-26T01:58:18;3.50;;;0.70;;
9418;SDS011;4748;50.802;7.132;2022-12-26T02:00:47;0.67;;;0.63;;
9418;SDS011;4748;50.802;7.132;2022-12-26T02:03:13;0.70;;;0.70;;
9418;SDS011;4748;50.802;7.132;2022-12-26T02:05:57;0.30;;;0.30;;
9418;SDS011;4748;50.802;7.132;2022-12-26T02:08:29;3.93;;;0.60;;
9418;SDS011;4748;50.802;7.132;2022-12-26T02:11:18;0.30;;;0.30;;
9418;SDS011;4748;50.802;7.132;2022-12-26T02:13:48;4.73;;;0.70;;
9418;SDS011;4748;50.802;7.132;2022-12-26T02:16:14;3.70;;;0.43;;
9418;SDS011;4748;50.802;7.132;2022-12-26T02:18:41;0.60;;;0.60;;
9418;SDS011;4748;50.802;7.132;2022-12-26T02:35:06;3.63;;;0.43;;
9418;SDS011;4748;50.802;7.132;2022-12-26T02:40:19;0.40;;;0.30;;
9418;SDS011;4748;50.802;7.132;2022-12-26T02:45:53;0.70;;;0.40;;
9418;SDS011;4748;50.802;7.132;2022-12-26T02:48:56;0.30;;;0.20;;
9418;SDS011;4748;50.802;7.132;2022-12-26T02:57:21;0.23;;;0.23;;
9418;SDS011;4748;50.802;7.132;2022-12-26T03:00:15;1.27;;;0.53;;
9418;SDS011;4748;50.802;7.132;2022-12-26T03:03:18;2.67;;;0.40;;
9418;SDS011;4748;50.802;7.132;2022-12-26T03:06:10;0.67;;;0.60;;
9418;SDS011;4748;50.802;7.132;2022-12-26T03:11:50;1.17;;;0.30;;
9418;SDS011;4748;50.802;7.132;2022-12-26T03:14:39;1.80;;;0.67;;
9418;SDS011;4748;50.802;7.132;2022-12-26T03:17:38;0.10;;;0.10;;
9418;SDS011;4748;50.802;7.132;2022-12-26T03:20:07;1.37;;;0.30;;
9418;SDS011;4748;50.802;7.132;2022-12-26T03:28:13;1.43;;;0.40;;
9418;SDS011;4748;50.802;7.132;2022-12-26T03:30:38;0.17;;;0.17;;
9418;SDS011;4748;50.802;7.132;2022-12-26T03:33:13;0.40;;;0.40;;
9418;SDS011;4748;50.802;7.132;2022-12-26T03:45:59;0.30;;;0.30;;
9418;SDS011;4748;50.802;7.132;2022-12-26T03:48:46;0.30;;;0.30;;
9418;SDS011;4748;50.802;7.132;2022-12-26T03:52:07;0.47;;;0.23;;
9418;SDS011;4748;50.802;7.132;2022-12-26T03:57:58;0.77;;;0.20;;
9418;SDS011;4748;50.802;7.132;2022-12-26T04:00:48;1.30;;;0.30;;
9418;SDS011;4748;50.802;7.132;2022-12-26T04:03:35;0.30;;;0.30;;
9418;SDS011;4748;50.802;7.132;2022-12-26T04:06:23;0.67;;;0.20;;
9418;SDS011;4748;50.802;7.132;2022-12-26T04:09:14;1.00;;;0.50;;
9418;SDS011;4748;50.802;7.132;2022-12-26T04:12:09;0.17;;;0.17;;
9418;SDS011;4748;50.802;7.132;2022-12-26T04:15:00;1.60;;;0.47;;
9418;SDS011;4748;50.802;7.132;2022-12-26T04:17:55;1.83;;;0.30;;
9418;SDS011;4748;50.802;7.132;2022-12-26T04:21:10;0.30;;;0.27;;
9418;SDS011;4748;50.802;7.132;2022-12-26T04:24:02;1.43;;;0.30;;
9418;SDS011;4748;50.802;7.132;2022-12-26T04:27:12;0.17;;;0.17;;
9418;SDS011;4748;50.802;7.132;2022-12-26T04:30:00;0.10;;;0.10;;
9418;SDS011;4748;50.802;7.132;2022-12-26T04:32:48;0.20;;;0.20;;
9418;SDS011;4748;50.802;7.132;2022-12-26T04:35:43;0.13;;;0.13;;
9418;SDS011;4748;50.802;7.132;2022-12-26T04:38:50;0.20;;;0.20;;
9418;SDS011;4748;50.802;7.132;2022-12-26T04:41:38;2.03;;;0.30;;
9418;SDS011;4748;50.802;7.132;2022-12-26T04:44:24;0.30;;;0.20;;
9418;SDS011;4748;50.802;7.132;2022-12-26T04:46:51;0.43;;;0.10;;
9418;SDS011;4748;50.802;7.132;2022-12-26T04:49:19;0.10;;;0.10;;
9418;SDS011;4748;50.802;7.132;2022-12-26T04:52:04;1.90;;;0.30;;
9418;SDS011;4748;50.802;7.132;2022-12-26T04:54:32;3.10;;;0.20;;
9418;SDS011;4748;50.802;7.132;2022-12-26T04:56:58;0.20;;;0.20;;
9418;SDS011;4748;50.802;7.132;2022-12-26T04:59:23;0.37;;;0.10;;
9418;SDS011;4748;50.802;7.132;2022-12-26T05:01:50;0.20;;;0.20;;
9418;SDS011;4748;50.802;7.132;2022-12-26T05:04:34;0.10;;;0.10;;
9418;SDS011;4748;50.802;7.132;2022-12-26T05:07:21;0.10;;;0.10;;
9418;SDS011;4748;50.802;7.132;2022-12-26T05:10:15;0.43;;;0.10;;
9418;SDS011;4748;50.802;7.132;2022-12-26T05:12:43;0.10;;;0.10;;
9418;SDS011;4748;50.802;7.132;2022-12-26T05:15:09;0.77;;;0.77;;
9418;SDS011;4748;50.802;7.132;2022-12-26T05:17:34;0.57;;;0.20;;
9418;SDS011;4748;50.802;7.132;2022-12-26T05:20:18;0.23;;;0.23;;
9418;SDS011;4748;50.802;7.132;2022-12-26T05:23:03;0.30;;;0.30;;
9418;SDS011;4748;50.802;7.132;2022-12-26T05:25:47;8.20;;;0.63;;
9418;SDS011;4748;50.802;7.132;2022-12-26T05:28:31;2.23;;;0.10;;
9418;SDS011;4748;50.802;7.132;2022-12-26T05:31:10;0.23;;;0.23;;
9418;SDS011;4748;50.802;7.132;2022-12-26T05:33:40;0.10;;;0.10;;
9418;SDS011;4748;50.802;7.132;2022-12-26T05:36:26;0.43;;;0.37;;
9418;SDS011;4748;50.802;7.132;2022-12-26T05:38:55;1.10;;;0.30;;
9418;SDS011;4748;50.802;7.132;2022-12-26T05:41:20;2.13;;;0.20;;
9418;SDS011;4748;50.802;7.132;2022-12-26T05:43:46;2.90;;;0.33;;
9418;SDS011;4748;50.802;7.132;2022-12-26T05:46:12;0.40;;;0.40;;
9418;SDS011;4748;50.802;7.132;2022-12-26T05:48:37;3.00;;;0.20;;
9418;SDS011;4748;50.802;7.132;2022-12-26T05:51:03;0.10;;;0.10;;
9418;SDS011;4748;50.802;7.132;2022-12-26T05:53:29;0.10;;;0.10;;
9418;SDS011;4748;50.802;7.132;2022-12-26T05:56:01;2.83;;;0.20;;
9418;SDS011;4748;50.802;7.132;2022-12-26T05:58:28;0.20;;;0.20;;
9418;SDS011;4748;50.802;7.132;2022-12-26T06:01:02;0.50;;;0.10;;
9418;SDS011;4748;50.802;7.132;2022-12-26T06:03:33;0.33;;;0.10;;
9418;SDS011;4748;50.802;7.132;2022-12-26T06:05:59;0.17;;;0.17;;
9418;SDS011;4748;50.802;7.132;2022-12-26T06:08:25;0.20;;;0.20;;
9418;SDS011;4748;50.802;7.132;2022-12-26T06:10:50;0.40;;;0.30;;
9418;SDS011;4748;50.802;7.132;2022-12-26T06:13:16;0.10;;;0.10;;
9418;SDS011;4748;50.802;7.132;2022-12-26T06:15:41;0.10;;;0.10;;
9418;SDS011;4748;50.802;7.132;2022-12-26T06:18:06;0.20;;;0.20;;
9418;SDS011;4748;50.802;7.132;2022-12-26T06:20:32;0.97;;;0.23;;
9418;SDS011;4748;50.802;7.132;2022-12-26T06:22:57;0.80;;;0.60;;
9418;SDS011;4748;50.802;7.132;2022-12-26T06:25:23;3.00;;;0.30;;
9418;SDS011;4748;50.802;7.132;2022-12-26T06:27:48;0.20;;;0.20;;
9418;SDS011;4748;50.802;7.132;2022-12-26T06:30:13;0.30;;;0.30;;
9418;SDS011;4748;50.802;7.132;2022-12-26T06:32:39;0.30;;;0.30;;
9418;SDS011;4748;50.802;7.132;2022-12-26T06:35:04;0.73;;;0.50;;
9418;SDS011;4748;50.802;7.132;2022-12-26T06:37:31;0.03;;;0.03;;
9418;SDS011;4748;50.802;7.132;2022-12-26T06:39:57;0.10;;;0.10;;
9418;SDS011;4748;50.802;7.132;2022-12-26T06:42:23;0.00;;;0.00;;
9418;SDS011;4748;50.802;7.132;2022-12-26T06:44:48;0.10;;;0.10;;
9418;SDS011;4748;50.802;7.132;2022-12-26T06:47:14;0.10;;;0.10;;
9418;SDS011;4748;50.802;7.132;2022-12-26T06:49:39;0.10;;;0.10;;
9418;SDS011;4748;50.802;7.132;2022-12-26T06:52:04;0.00;;;0.00;;
9418;SDS011;4748;50.802;7.132;2022-12-26T06:54:30;0.03;;;0.03;;
9418;SDS011;4748;50.802;7.132;2022-12-26T06:56:55;0.00;;;0.00;;
9418;SDS011;4748;50.802;7.132;2022-12-26T06:59:20;0.10;;;0.10;;
9418;SDS011;4748;50.802;7.132;2022-12-26T07:01:46;0.00;;;0.00;;
9418;SDS011;4748;50.802;7.132;2022-12-26T07:04:12;2.47;;;0.20;;
9418;SDS011;4748;50.802;7.132;2022-12-26T07:06:37;0.00;;;0.00;;
9418;SDS011;4748;50.802;7.132;2022-12-26T07:09:08;1.17;;;0.10;;
9418;SDS011;4748;50.802;7.132;2022-12-26T07:11:39;0.10;;;0.07;;
9418;SDS011;4748;50.802;7.132;2022-12-26T07:14:06;0.10;;;0.10;;
9418;SDS011;4748;50.802;7.132;2022-12-26T07:16:35;0.00;;;0.00;;
9418;SDS011;4748;50.802;7.132;2022-12-26T07:19:02;0.00;;;0.00;;
9418;SDS011;4748;50.802;7.132;2022-12-26T07:21:28;0.10;;;0.10;;
9418;SDS011;4748;50.802;7.132;2022-12-26T07:23:53;2.00;;;0.03;;
9418;SDS011;4748;50.802;7.132;2022-12-26T07:26:19;0.00;;;0.00;;
9418;SDS011;4748;50.802;7.132;2022-12-26T07:28:45;0.43;;;0.00;;
9418;SDS011;4748;50.802;7.132;2022-12-26T07:31:14;0.00;;;0.00;;
9418;SDS011;4748;50.802;7.132;2022-12-26T07:33:50;0.00;;;0.00;;
9418;SDS011;4748;50.802;7.132;2022-12-26T07:36:17;0.00;;;0.00;;
9418;SDS011;4748;50.802;7.132;2022-12-26T07:38:43;0.00;;;0.00;;
9418;SDS011;4748;50.802;7.132;2022-12-26T07:41:09;0.00;;;0.00;;
9418;SDS011;4748;50.802;7.132;2022-12-26T07:43:53;0.13;;;0.13;;
9418;SDS011;4748;50.802;7.132;2022-12-26T07:46:19;0.10;;;0.10;;
9418;SDS011;4748;50.802;7.132;2022-12-26T07:48:44;0.00;;;0.00;;
9418;SDS011;4748;50.802;7.132;2022-12-26T07:51:10;0.00;;;0.00;;
9418;SDS011;4748;50.802;7.132;2022-12-26T07:53:35;0.10;;;0.10;;
9418;SDS011;4748;50.802;7.132;2022-12-26T07:56:01;0.30;;;0.30;;
9418;SDS011;4748;50.802;7.132;2022-12-26T07:58:27;0.10;;;0.10;;
9418;SDS011;4748;50.802;7.132;2022-12-26T08:00:52;0.40;;;0.23;;
9418;SDS011;4748;50.802;7.132;2022-12-26T08:03:18;4.53;;;0.40;;
9418;SDS011;4748;50.802;7.132;2022-12-26T08:05:44;0.30;;;0.30;;
9418;SDS011;4748;50.802;7.132;2022-12-26T08:08:10;0.10;;;0.10;;
9418;SDS011;4748;50.802;7.132;2022-12-26T08:10:36;1.00;;;0.30;;
9418;SDS011;4748;50.802;7.132;2022-12-26T08:13:01;3.60;;;0.23;;
9418;SDS011;4748;50.802;7.132;2022-12-26T08:15:26;0.30;;;0.10;;
9418;SDS011;4748;50.802;7.132;2022-12-26T08:17:52;0.33;;;0.10;;
9418;SDS011;4748;50.802;7.132;2022-12-26T08:20:17;5.10;;;0.20;;
9418;SDS011;4748;50.802;7.132;2022-12-26T08:22:42;1.80;;;0.50;;
9418;SDS011;4748;50.802;7.132;2022-12-26T08:25:08;0.40;;;0.40;;
9418;SDS011;4748;50.802;7.132;2022-12-26T08:27:34;0.90;;;0.50;;
9418;SDS011;4748;50.802;7.132;2022-12-26T08:29:59;0.70;;;0.20;;
9418;SDS011;4748;50.802;7.132;2022-12-26T08:32:24;1.60;;;0.30;;
9418;SDS011;4748;50.802;7.132;2022-12-26T08:34:50;0.67;;;0.20;;
9418;SDS011;4748;50.802;7.132;2022-12-26T08:37:15;0.30;;;0.30;;
9418;SDS011;4748;50.802;7.132;2022-12-26T08:39:40;0.83;;;0.20;;
9418;SDS011;4748;50.802;7.132;2022-12-26T08:42:06;0.20;;;0.20;;
9418;SDS011;4748;50.802;7.132;2022-12-26T08:44:31;0.80;;;0.40;;
9418;SDS011;4748;50.802;7.132;2022-12-26T08:46:56;1.23;;;0.40;;
9418;SDS011;4748;50.802;7.132;2022-12-26T08:49:22;0.27;;;0.27;;
9418;SDS011;4748;50.802;7.132;2022-12-26T08:51:47;1.53;;;0.20;;
9418;SDS011;4748;50.802;7.132;2022-12-26T08:54:13;0.47;;;0.30;;
9418;SDS011;4748;50.802;7.132;2022-12-26T08:56:38;0.70;;;0.30;;
9418;SDS011;4748;50.802;7.132;2022-12-26T08:59:03;0.43;;;0.30;;
9418;SDS011;4748;50.802;7.132;2022-12-26T09:01:29;3.23;;;0.30;;
9418;SDS011;4748;50.802;7.132;2022-12-26T09:03:56;0.47;;;0.40;;
9418;SDS011;4748;50.802;7.132;2022-12-26T09:06:23;0.50;;;0.37;;
9418;SDS011;4748;50.802;7.132;2022-12-26T09:08:49;0.97;;;0.97;;
9418;SDS011;4748;50.802;7.132;2022-12-26T09:11:16;0.53;;;0.53;;
9418;SDS011;4748;50.802;7.132;2022-12-26T09:13:46;2.17;;;0.87;;
9418;SDS011;4748;50.802;7.132;2022-12-26T09:16:23;1.57;;;0.83;;
9418;SDS011;4748;50.802;7.132;2022-12-26T09:18:59;3.50;;;0.80;;
9418;SDS011;4748;50.802;7.132;2022-12-26T09:21:25;1.17;;;0.60;;
9418;SDS011;4748;50.802;7.132;2022-12-26T09:23:58;2.77;;;0.63;;
9418;SDS011;4748;50.802;7.132;2022-12-26T09:26:25;1.43;;;0.80;;
9418;SDS011;4748;50.802;7.132;2022-12-26T09:28:51;0.70;;;0.50;;
9418;SDS011;4748;50.802;7.132;2022-12-26T09:31:27;0.80;;;0.50;;
9418;SDS011;4748;50.802;7.132;2022-12-26T09:33:53;4.70;;;0.93;;
9418;SDS011;4748;50.802;7.132;2022-12-26T09:36:21;1.30;;;1.20;;
9418;SDS011;4748;50.802;7.132;2022-12-26T09:38:48;0.87;;;0.40;;
9418;SDS011;4748;50.802;7.132;2022-12-26T09:41:21;2.83;;;0.50;;
9418;SDS011;4748;50.802;7.132;2022-12-26T09:44:09;1.00;;;0.77;;
9418;SDS011;4748;50.802;7.132;2022-12-26T09:46:43;1.33;;;0.80;;
9418;SDS011;4748;50.802;7.132;2022-12-26T09:49:15;2.33;;;0.90;;
9418;SDS011;4748;50.802;7.132;2022-12-26T09:51:45;0.90;;;0.40;;
9418;SDS011;4748;50.802;7.132;2022-12-26T09:54:28;1.60;;;0.57;;
9418;SDS011;4748;50.802;7.132;2022-12-26T09:57:07;1.87;;;1.03;;
9418;SDS011;4748;50.802;7.132;2022-12-26T09:59:45;1.93;;;1.30;;
9418;SDS011;4748;50.802;7.132;2022-12-26T10:02:22;3.93;;;1.20;;
9418;SDS011;4748;50.802;7.132;2022-12-26T10:04:49;1.63;;;0.80;;
9418;SDS011;4748;50.802;7.132;2022-12-26T10:07:18;3.90;;;1.50;;
9418;SDS011;4748;50.802;7.132;2022-12-26T10:23:50;1.87;;;1.07;;
9418;SDS011;4748;50.802;7.132;2022-12-26T10:26:22;1.80;;;1.33;;
9418;SDS011;4748;50.802;7.132;2022-12-26T10:31:37;1.07;;;0.40;;
9418;SDS011;4748;50.802;7.132;2022-12-26T10:36:48;1.43;;;0.50;;
9418;SDS011;4748;50.802;7.132;2022-12-26T10:40:02;1.40;;;0.60;;
9418;SDS011;4748;50.802;7.132;2022-12-26T10:45:01;1.17;;;0.20;;
9418;SDS011;4748;50.802;7.132;2022-12-26T10:47:39;0.10;;;0.10;;
9418;SDS011;4748;50.802;7.132;2022-12-26T10:50:29;0.40;;;0.23;;
9418;SDS011;4748;50.802;7.132;2022-12-26T10:52:58;0.50;;;0.20;;
9418;SDS011;4748;50.802;7.132;2022-12-26T10:55:25;2.07;;;0.07;;
9418;SDS011;4748;50.802;7.132;2022-12-26T10:57:53;5.50;;;0.20;;
9418;SDS011;4748;50.802;7.132;2022-12-26T11:00:26;2.20;;;0.30;;
9418;SDS011;4748;50.802;7.132;2022-12-26T11:03:05;0.20;;;0.20;;
9418;SDS011;4748;50.802;7.132;2022-12-26T11:05:37;0.20;;;0.20;;
9418;SDS011;4748;50.802;7.132;2022-12-26T11:08:20;0.20;;;0.20;;
9418;SDS011;4748;50.802;7.132;2022-12-26T11:16:29;3.70;;;0.20;;
9418;SDS011;4748;50.802;7.132;2022-12-26T11:18:58;0.63;;;0.27;;
9418;SDS011;4748;50.802;7.132;2022-12-26T11:21:24;0.93;;;0.10;;
9418;SDS011;4748;50.802;7.132;2022-12-26T11:26:31;0.20;;;0.20;;
9418;SDS011;4748;50.802;7.132;2022-12-26T11:29:12;0.20;;;0.20;;
9418;SDS011;4748;50.802;7.132;2022-12-26T11:32:02;1.37;;;0.27;;
9418;SDS011;4748;50.802;7.132;2022-12-26T11:34:38;0.20;;;0.20;;
9418;SDS011;4748;50.802;7.132;2022-12-26T11:37:26;0.67;;;0.30;;
9418;SDS011;4748;50.802;7.132;2022-12-26T11:39:55;0.57;;;0.47;;
9418;SDS011;4748;50.802;7.132;2022-12-26T11:42:22;0.20;;;0.10;;
9418;SDS011;4748;50.802;7.132;2022-12-26T11:44:50;0.27;;;0.10;;
9418;SDS011;4748;50.802;7.132;2022-12-26T11:47:19;1.43;;;0.20;;
9418;SDS011;4748;50.802;7.132;2022-12-26T11:52:41;1.67;;;0.30;;
9418;SDS011;4748;50.802;7.132;2022-12-26T12:00:37;0.20;;;0.20;;
9418;SDS011;4748;50.802;7.132;2022-12-26T12:03:14;1.40;;;0.20;;
9418;SDS011;4748;50.802;7.132;2022-12-26T12:05:43;1.60;;;0.20;;
9418;SDS011;4748;50.802;7.132;2022-12-26T12:11:24;3.10;;;0.20;;
9418;SDS011;4748;50.802;7.132;2022-12-26T12:17:01;0.30;;;0.17;;
9418;SDS011;4748;50.802;7.132;2022-12-26T12:36:38;1.73;;;0.60;;
9418;SDS011;4748;50.802;7.132;2022-12-26T12:39:44;0.20;;;0.20;;
9418;SDS011;4748;50.802;7.132;2022-12-26T12:45:08;5.73;;;0.30;;
9418;SDS011;4748;50.802;7.132;2022-12-26T13:01:21;1.20;;;0.00;;
9418;SDS011;4748;50.802;7.132;2022-12-26T13:03:59;0.20;;;0.20;;
9418;SDS011;4748;50.802;7.132;2022-12-26T13:06:46;0.10;;;0.10;;
9418;SDS011;4748;50.802;7.132;2022-12-26T13:09:20;0.23;;;0.10;;
9418;SDS011;4748;50.802;7.132;2022-12-26T13:12:00;1.37;;;0.10;;
9418;SDS011;4748;50.802;7.132;2022-12-26T13:14:30;1.10;;;0.57;;
9418;SDS011;4748;50.802;7.132;2022-12-26T13:19:44;0.27;;;0.27;;
9418;SDS011;4748;50.802;7.132;2022-12-26T13:22:18;0.00;;;0.00;;
9418;SDS011;4748;50.802;7.132;2022-12-26T13:24:51;0.00;;;0.00;;
9418;SDS011;4748;50.802;7.132;2022-12-26T13:27:29;0.37;;;0.20;;
9418;SDS011;4748;50.802;7.132;2022-12-26T13:29:56;0.10;;;0.10;;
9418;SDS011;4748;50.802;7.132;2022-12-26T13:32:26;1.03;;;0.60;;
9418;SDS011;4748;50.802;7.132;2022-12-26T13:34:55;3.30;;;0.10;;
9418;SDS011;4748;50.802;7.132;2022-12-26T13:39:57;0.10;;;0.10;;
9418;SDS011;4748;50.802;7.132;2022-12-26T13:42:38;0.40;;;0.20;;
9418;SDS011;4748;50.802;7.132;2022-12-26T13:55:50;2.97;;;0.20;;
9418;SDS011;4748;50.802;7.132;2022-12-26T13:58:21;0.10;;;0.10;;
9418;SDS011;4748;50.802;7.132;2022-12-26T14:00:51;0.20;;;0.20;;
9418;SDS011;4748;50.802;7.132;2022-12-26T14:17:13;1.90;;;0.37;;
9418;SDS011;4748;50.802;7.132;2022-12-26T14:19:51;0.20;;;0.20;;
9418;SDS011;4748;50.802;7.132;2022-12-26T14:50:43;1.10;;;0.10;;
9418;SDS011;4748;50.802;7.132;2022-12-26T15:03:43;1.27;;;0.30;;
9418;SDS011;4748;50.802;7.132;2022-12-26T15:12:54;0.63;;;0.20;;
9418;SDS011;4748;50.802;7.132;2022-12-26T15:15:28;0.30;;;0.30;;
9418;SDS011;4748;50.802;7.132;2022-12-26T15:21:07;0.20;;;0.20;;
9418;SDS011;4748;50.802;7.132;2022-12-26T15:27:28;0.20;;;0.20;;
9418;SDS011;4748;50.802;7.132;2022-12-26T15:33:16;1.37;;;0.20;;
9418;SDS011;4748;50.802;7.132;2022-12-26T15:35:49;0.20;;;0.20;;
9418;SDS011;4748;50.802;7.132;2022-12-26T15:38:43;0.27;;;0.27;;
9418;SDS011;4748;50.802;7.132;2022-12-26T15:44:25;0.83;;;0.83;;
9418;SDS011;4748;50.802;7.132;2022-12-26T15:47:14;8.93;;;0.30;;
9418;SDS011;4748;50.802;7.132;2022-12-26T15:49:55;0.90;;;0.90;;
9418;SDS011;4748;50.802;7.132;2022-12-26T15:52:46;3.23;;;0.73;;
9418;SDS011;4748;50.802;7.132;2022-12-26T16:01:01;0.10;;;0.10;;
9418;SDS011;4748;50.802;7.132;2022-12-26T16:03:35;0.60;;;0.30;;
9418;SDS011;4748;50.802;7.132;2022-12-26T16:09:47;0.40;;;0.20;;
9418;SDS011;4748;50.802;7.132;2022-12-26T16:12:21;1.23;;;0.43;;
9418;SDS011;4748;50.802;7.132;2022-12-26T16:14:48;1.40;;;0.40;;
9418;SDS011;4748;50.802;7.132;2022-12-26T16:17:23;0.40;;;0.40;;
9418;SDS011;4748;50.802;7.132;2022-12-26T16:19:49;1.60;;;0.40;;
9418;SDS011;4748;50.802;7.132;2022-12-26T16:22:19;0.47;;;0.40;;
9418;SDS011;4748;50.802;7.132;2022-12-26T16:25:08;0.93;;;0.37;;
9418;SDS011;4748;50.802;7.132;2022-12-26T16:27:53;0.10;;;0.10;;
9418;SDS011;4748;50.802;7.132;2022-12-26T16:30:22;2.30;;;0.40;;
9418;SDS011;4748;50.802;7.132;2022-12-26T16:32:49;1.83;;;0.70;;
9418;SDS011;4748;50.802;7.132;2022-12-26T16:37:46;0.40;;;0.40;;
9418;SDS011;4748;50.802;7.132;2022-12-26T16:42:53;1.37;;;0.30;;
9418;SDS011;4748;50.802;7.132;2022-12-26T16:45:21;0.30;;;0.30;;
9418;SDS011;4748;50.802;7.132;2022-12-26T16:47:48;0.30;;;0.30;;
9418;SDS011;4748;50.802;7.132;2022-12-26T16:50:18;0.30;;;0.20;;
9418;SDS011;4748;50.802;7.132;2022-12-26T16:52:46;1.03;;;0.70;;
9418;SDS011;4748;50.802;7.132;2022-12-26T16:57:55;2.87;;;0.83;;
9418;SDS011;4748;50.802;7.132;2022-12-26T17:00:22;4.03;;;0.50;;
9418;SDS011;4748;50.802;7.132;2022-12-26T17:02:49;1.37;;;1.10;;
9418;SDS011;4748;50.802;7.132;2022-12-26T17:05:27;3.00;;;0.77;;
9418;SDS011;4748;50.802;7.132;2022-12-26T17:07:56;2.57;;;0.97;;
9418;SDS011;4748;50.802;7.132;2022-12-26T17:10:26;1.80;;;0.97;;
9418;SDS011;4748;50.802;7.132;2022-12-26T17:12:56;2.37;;;1.10;;
9418;SDS011;4748;50.802;7.132;2022-12-26T17:15:27;1.20;;;1.10;;
9418;SDS011;4748;50.802;7.132;2022-12-26T17:17:54;17.93;;;1.43;;
9418;SDS011;4748;50.802;7.132;2022-12-26T17:22:47;5.57;;;1.10;;
9418;SDS011;4748;50.802;7.132;2022-12-26T17:27:39;4.93;;;1.27;;
9418;SDS011;4748;50.802;7.132;2022-12-26T17:30:25;1.77;;;0.97;;
9418;SDS011;4748;50.802;7.132;2022-12-26T17:33:00;2.57;;;1.70;;
9418;SDS011;4748;50.802;7.132;2022-12-26T17:35:28;1.80;;;1.20;;
9418;SDS011;4748;50.802;7.132;2022-12-26T17:37:59;4.53;;;1.10;;
9418;SDS011;4748;50.802;7.132;2022-12-26T17:40:28;6.60;;;1.87;;
9418;SDS011;4748;50.802;7.132;2022-12-26T17:45:43;1.13;;;1.10;;
9418;SDS011;4748;50.802;7.132;2022-12-26T17:48:09;1.43;;;1.33;;
9418;SDS011;4748;50.802;7.132;2022-12-26T17:50:37;6.53;;;1.73;;
9418;SDS011;4748;50.802;7.132;2022-12-26T17:53:06;3.67;;;1.60;;
9418;SDS011;4748;50.802;7.132;2022-12-26T17:55:42;2.87;;;1.70;;
9418;SDS011;4748;50.802;7.132;2022-12-26T17:58:09;1.27;;;0.90;;
9418;SDS011;4748;50.802;7.132;2022-12-26T18:00:36;3.17;;;0.90;;
9418;SDS011;4748;50.802;7.132;2022-12-26T18:03:02;3.53;;;0.27;;
9418;SDS011;4748;50.802;7.132;2022-12-26T18:05:27;4.27;;;0.50;;
9418;SDS011;4748;50.802;7.132;2022-12-26T18:07:53;4.27;;;0.53;;
9418;SDS011;4748;50.802;7.132;2022-12-26T18:10:23;0.80;;;0.80;;
9418;SDS011;4748;50.802;7.132;2022-12-26T18:12:51;1.63;;;0.90;;
9418;SDS011;4748;50.802;7.132;2022-12-26T18:15:17;6.13;;;0.80;;
9418;SDS011;4748;50.802;7.132;2022-12-26T18:17:43;1.03;;;0.60;;
9418;SDS011;4748;50.802;7.132;2022-12-26T18:20:14;2.60;;;0.87;;
9418;SDS011;4748;50.802;7.132;2022-12-26T18:22:45;1.27;;;0.90;;
9418;SDS011;4748;50.802;7.132;2022-12-26T18:25:13;7.33;;;1.23;;
9418;SDS011;4748;50.802;7.132;2022-12-26T18:27:39;0.80;;;0.60;;
9418;SDS011;4748;50.802;7.132;2022-12-26T18:30:05;2.03;;;0.90;;
9418;SDS011;4748;50.802;7.132;2022-12-26T18:32:34;1.23;;;1.03;;
9418;SDS011;4748;50.802;7.132;2022-12-26T18:34:59;2.40;;;1.07;;
9418;SDS011;4748;50.802;7.132;2022-12-26T18:37:26;1.90;;;0.97;;
9418;SDS011;4748;50.802;7.132;2022-12-26T18:39:53;4.00;;;1.30;;
9418;SDS011;4748;50.802;7.132;2022-12-26T18:42:18;1.17;;;1.03;;
9418;SDS011;4748;50.802;7.132;2022-12-26T18:44:44;4.80;;;0.80;;
9418;SDS011;4748;50.802;7.132;2022-12-26T18:47:13;0.90;;;0.67;;
9418;SDS011;4748;50.802;7.132;2022-12-26T18:49:43;0.40;;;0.40;;
9418;SDS011;4748;50.802;7.132;2022-12-26T18:52:09;4.00;;;0.70;;
9418;SDS011;4748;50.802;7.132;2022-12-26T18:54:35;0.60;;;0.60;;
9418;SDS011;4748;50.802;7.132;2022-12-26T18:57:02;0.60;;;0.60;;
9418;SDS011;4748;50.802;7.132;2022-12-26T18:59:31;2.37;;;0.63;;
9418;SDS011;4748;50.802;7.132;2022-12-26T19:01:56;0.30;;;0.30;;
9418;SDS011;4748;50.802;7.132;2022-12-26T19:04:21;3.30;;;0.50;;
9418;SDS011;4748;50.802;7.132;2022-12-26T19:06:47;2.93;;;0.43;;
9418;SDS011;4748;50.802;7.132;2022-12-26T19:09:12;0.57;;;0.37;;
9418;SDS011;4748;50.802;7.132;2022-12-26T19:11:39;1.90;;;0.50;;
9418;SDS011;4748;50.802;7.132;2022-12-26T19:14:05;0.40;;;0.40;;
9418;SDS011;4748;50.802;7.132;2022-12-26T19:16:32;0.27;;;0.27;;
9418;SDS011;4748;50.802;7.132;2022-12-26T19:18:58;0.20;;;0.20;;
9418;SDS011;4748;50.802;7.132;2022-12-26T19:21:24;0.53;;;0.53;;
9418;SDS011;4748;50.802;7.132;2022-12-26T19:23:49;0.50;;;0.50;;
9418;SDS011;4748;50.802;7.132;2022-12-26T19:26:15;2.80;;;0.57;;
9418;SDS011;4748;50.802;7.132;2022-12-26T19:28:42;0.33;;;0.33;;
9418;SDS011;4748;50.802;7.132;2022-12-26T19:31:07;14.20;;;0.40;;
9418;SDS011;4748;50.802;7.132;2022-12-26T19:33:34;0.70;;;0.43;;
9418;SDS011;4748;50.802;7.132;2022-12-26T19:36:00;1.90;;;0.50;;
9418;SDS011;4748;50.802;7.132;2022-12-26T19:38:25;5.10;;;1.00;;
9418;SDS011;4748;50.802;7.132;2022-12-26T19:40:51;4.93;;;0.60;;